This is the latest recevied weather packets stored in our database for station/object VK2KGV-15. If no packets are shown the sender has not sent any weather packets the latest 10 day(s).
| Time | Temp. | Humidity | Pressure | Rain* | Wind** | Luminosity | Snow |
|---|---|---|---|---|---|---|---|
| 1777976153 | 16.67° C | 92% | 1019.3 hPa | 1.52 mm | - | - | - |
| 1777974947 | 17.22° C | 92% | 1019.3 hPa | 1.52 mm | - | - | - |
| 1777971328 | 17.22° C | 90% | 1019.2 hPa | 1.52 mm | - | - | - |
| 1777970122 | 17.22° C | 90% | 1019.3 hPa | 1.52 mm | - | - | - |
| 1777969519 | 17.22° C | 90% | 1018.8 hPa | 1.52 mm | - | - | - |
| 1777967106 | 17.22° C | 88% | 1018.5 hPa | 1.52 mm | - | - | - |
| 1777966503 | 17.78° C | 87% | 1018.4 hPa | 1.52 mm | - | - | - |
| 1777965900 | 17.78° C | 87% | 1018.3 hPa | 1.52 mm | - | - | - |
| 1777964091 | 17.78° C | 87% | 1018.5 hPa | 1.52 mm | - | - | - |
| 1777962884 | 18.33° C | 85% | 1018.1 hPa | 1.27 mm | - | - | - |
| 1777961678 | 18.33° C | 84% | 1018.2 hPa | 0.76 mm | - | - | - |
| 1777959266 | 20.56° C | 69% | 1017.4 hPa | 0 mm | - | - | - |
| 1777958060 | 20.56° C | 68% | 1017.2 hPa | 0 mm | - | - | - |
| 1777956853 | 21.11° C | 64% | 1016.8 hPa | 0 mm | - | - | - |
| 1777952028 | 23.33° C | 52% | 1016.1 hPa | 0 mm | - | - | - |
| 1777950822 | 24.44° C | 50% | 1016 hPa | 0 mm | - | - | - |
| 1777949616 | 23.89° C | 52% | 1016.2 hPa | 0 mm | - | - | - |
| 1777945997 | 23.33° C | 55% | 1017 hPa | 0 mm | - | - | - |
| 1777943585 | 22.78° C | 57% | 1017.8 hPa | 0 mm | - | - | - |
| 1777942379 | 23.33° C | 57% | 1017.8 hPa | 0 mm | - | - | - |
| 1777938760 | 23.33° C | 57% | 1018.2 hPa | 0 mm | - | - | - |
| 1777937554 | 22.78° C | 60% | 1018.5 hPa | 0 mm | - | - | - |
| 1777936348 | 21.11° C | 64% | 1018.6 hPa | 0 mm | - | - | - |
| 1777933935 | 20° C | 68% | 1019 hPa | 0 mm | - | - | - |
| 1777932729 | 18.89° C | 67% | 1018.9 hPa | 0 mm | - | - | - |
* Rain since midnight (hover to see other rain measurements)
** Current wind speed in m/s (hover to see current wind gust speed)